sensor_id;sensor_type;location;lat;lon;timestamp;temperature;humidity
10692;DHT22;5396;50.950;6.988;2023-05-10T00:01:46;12.80;99.90
10692;DHT22;5396;50.950;6.988;2023-05-10T00:04:11;12.80;99.90
10692;DHT22;5396;50.950;6.988;2023-05-10T00:06:37;12.80;99.90
10692;DHT22;5396;50.950;6.988;2023-05-10T00:09:03;12.80;99.90
10692;DHT22;5396;50.950;6.988;2023-05-10T00:11:29;12.80;99.90
10692;DHT22;5396;50.950;6.988;2023-05-10T00:13:54;12.80;99.90
10692;DHT22;5396;50.950;6.988;2023-05-10T00:16:20;12.90;99.90
10692;DHT22;5396;50.950;6.988;2023-05-10T00:18:45;12.80;99.90
10692;DHT22;5396;50.950;6.988;2023-05-10T00:21:11;12.80;99.90
10692;DHT22;5396;50.950;6.988;2023-05-10T00:23:37;12.80;99.90
10692;DHT22;5396;50.950;6.988;2023-05-10T00:26:02;12.80;99.90
10692;DHT22;5396;50.950;6.988;2023-05-10T00:28:28;12.80;99.90
10692;DHT22;5396;50.950;6.988;2023-05-10T00:30:54;12.80;99.90
10692;DHT22;5396;50.950;6.988;2023-05-10T00:33:20;12.90;99.90
10692;DHT22;5396;50.950;6.988;2023-05-10T00:35:46;12.80;99.90
10692;DHT22;5396;50.950;6.988;2023-05-10T00:38:12;12.90;99.90
10692;DHT22;5396;50.950;6.988;2023-05-10T00:40:37;12.80;99.90
10692;DHT22;5396;50.950;6.988;2023-05-10T00:43:03;12.90;99.90
10692;DHT22;5396;50.950;6.988;2023-05-10T00:45:30;12.90;99.90
10692;DHT22;5396;50.950;6.988;2023-05-10T00:47:56;12.90;99.90
10692;DHT22;5396;50.950;6.988;2023-05-10T00:50:23;12.90;99.90
10692;DHT22;5396;50.950;6.988;2023-05-10T00:52:49;12.90;99.90
10692;DHT22;5396;50.950;6.988;2023-05-10T00:55:14;12.90;99.90
10692;DHT22;5396;50.950;6.988;2023-05-10T00:57:41;12.90;99.90
10692;DHT22;5396;50.950;6.988;2023-05-10T01:00:07;12.90;99.90
10692;DHT22;5396;50.950;6.988;2023-05-10T01:02:34;13.00;99.90
10692;DHT22;5396;50.950;6.988;2023-05-10T01:05:01;12.90;99.90
10692;DHT22;5396;50.950;6.988;2023-05-10T01:07:27;12.90;99.90
10692;DHT22;5396;50.950;6.988;2023-05-10T01:09:53;12.90;99.90
10692;DHT22;5396;50.950;6.988;2023-05-10T01:12:19;13.00;99.90
10692;DHT22;5396;50.950;6.988;2023-05-10T01:14:45;13.00;99.90
10692;DHT22;5396;50.950;6.988;2023-05-10T01:17:12;13.00;99.90
10692;DHT22;5396;50.950;6.988;2023-05-10T01:19:38;13.00;99.90
10692;DHT22;5396;50.950;6.988;2023-05-10T01:33:39;13.00;99.90
10692;DHT22;5396;50.950;6.988;2023-05-10T01:36:35;13.00;99.90
10692;DHT22;5396;50.950;6.988;2023-05-10T01:39:28;13.00;99.90
10692;DHT22;5396;50.950;6.988;2023-05-10T01:42:04;13.00;99.90
10692;DHT22;5396;50.950;6.988;2023-05-10T01:47:37;13.00;99.90
10692;DHT22;5396;50.950;6.988;2023-05-10T01:50:08;13.10;99.90
10692;DHT22;5396;50.950;6.988;2023-05-10T01:52:42;13.00;99.90
10692;DHT22;5396;50.950;6.988;2023-05-10T01:55:13;13.00;99.90
10692;DHT22;5396;50.950;6.988;2023-05-10T01:57:43;13.00;99.90
10692;DHT22;5396;50.950;6.988;2023-05-10T02:00:10;13.00;99.90
10692;DHT22;5396;50.950;6.988;2023-05-10T02:02:39;13.00;99.90
10692;DHT22;5396;50.950;6.988;2023-05-10T02:05:07;13.00;99.90
10692;DHT22;5396;50.950;6.988;2023-05-10T02:07:36;13.00;99.90
10692;DHT22;5396;50.950;6.988;2023-05-10T02:10:04;13.00;99.90
10692;DHT22;5396;50.950;6.988;2023-05-10T02:12:32;13.00;99.90
10692;DHT22;5396;50.950;6.988;2023-05-10T02:15:02;12.90;99.90
10692;DHT22;5396;50.950;6.988;2023-05-10T02:17:31;12.80;99.90
10692;DHT22;5396;50.950;6.988;2023-05-10T02:19:57;12.70;99.90
10692;DHT22;5396;50.950;6.988;2023-05-10T02:22:25;12.70;99.90
10692;DHT22;5396;50.950;6.988;2023-05-10T02:24:53;12.60;99.90
10692;DHT22;5396;50.950;6.988;2023-05-10T02:27:20;12.60;99.90
10692;DHT22;5396;50.950;6.988;2023-05-10T02:29:47;12.50;99.90
10692;DHT22;5396;50.950;6.988;2023-05-10T02:32:15;12.50;99.90
10692;DHT22;5396;50.950;6.988;2023-05-10T02:34:41;12.60;99.90
10692;DHT22;5396;50.950;6.988;2023-05-10T02:37:07;12.50;99.90
10692;DHT22;5396;50.950;6.988;2023-05-10T02:39:35;12.50;99.90
10692;DHT22;5396;50.950;6.988;2023-05-10T02:42:01;12.50;99.90
10692;DHT22;5396;50.950;6.988;2023-05-10T02:44:28;12.50;99.90
10692;DHT22;5396;50.950;6.988;2023-05-10T02:46:56;12.50;99.90
10692;DHT22;5396;50.950;6.988;2023-05-10T02:49:22;12.50;99.90
10692;DHT22;5396;50.950;6.988;2023-05-10T02:51:51;12.50;99.90
10692;DHT22;5396;50.950;6.988;2023-05-10T02:54:22;12.50;99.90
10692;DHT22;5396;50.950;6.988;2023-05-10T02:56:57;12.50;99.90
10692;DHT22;5396;50.950;6.988;2023-05-10T02:59:23;12.50;99.90
10692;DHT22;5396;50.950;6.988;2023-05-10T03:01:49;12.50;99.90
10692;DHT22;5396;50.950;6.988;2023-05-10T03:04:15;12.50;99.90
10692;DHT22;5396;50.950;6.988;2023-05-10T03:06:40;12.50;99.90
10692;DHT22;5396;50.950;6.988;2023-05-10T03:09:07;12.50;99.90
10692;DHT22;5396;50.950;6.988;2023-05-10T03:11:47;12.60;99.90
10692;DHT22;5396;50.950;6.988;2023-05-10T03:19:56;12.60;99.90
10692;DHT22;5396;50.950;6.988;2023-05-10T03:22:32;12.60;99.90
10692;DHT22;5396;50.950;6.988;2023-05-10T03:25:02;12.60;99.90
10692;DHT22;5396;50.950;6.988;2023-05-10T03:27:30;12.60;99.90
10692;DHT22;5396;50.950;6.988;2023-05-10T03:29:57;12.60;99.90
10692;DHT22;5396;50.950;6.988;2023-05-10T03:32:25;12.60;99.90
10692;DHT22;5396;50.950;6.988;2023-05-10T03:34:52;12.70;99.90
10692;DHT22;5396;50.950;6.988;2023-05-10T03:37:18;12.70;99.90
10692;DHT22;5396;50.950;6.988;2023-05-10T03:39:43;12.70;99.90
10692;DHT22;5396;50.950;6.988;2023-05-10T03:42:09;12.80;99.90
10692;DHT22;5396;50.950;6.988;2023-05-10T03:44:38;12.80;99.90
10692;DHT22;5396;50.950;6.988;2023-05-10T03:47:04;12.80;99.90
10692;DHT22;5396;50.950;6.988;2023-05-10T03:49:30;12.80;99.90
10692;DHT22;5396;50.950;6.988;2023-05-10T03:51:55;12.80;99.90
10692;DHT22;5396;50.950;6.988;2023-05-10T03:54:21;12.80;99.90
10692;DHT22;5396;50.950;6.988;2023-05-10T03:56:47;12.80;99.90
10692;DHT22;5396;50.950;6.988;2023-05-10T03:59:13;12.80;99.90
10692;DHT22;5396;50.950;6.988;2023-05-10T04:01:39;12.80;99.90
10692;DHT22;5396;50.950;6.988;2023-05-10T04:04:04;12.90;99.90
10692;DHT22;5396;50.950;6.988;2023-05-10T04:06:30;12.90;99.90
10692;DHT22;5396;50.950;6.988;2023-05-10T04:08:56;12.90;99.90
10692;DHT22;5396;50.950;6.988;2023-05-10T04:11:25;13.00;99.90
10692;DHT22;5396;50.950;6.988;2023-05-10T04:13:50;12.90;99.90
10692;DHT22;5396;50.950;6.988;2023-05-10T04:16:16;12.90;99.90
10692;DHT22;5396;50.950;6.988;2023-05-10T04:18:41;12.90;99.90
10692;DHT22;5396;50.950;6.988;2023-05-10T04:21:13;12.80;99.90
10692;DHT22;5396;50.950;6.988;2023-05-10T04:23:39;12.90;99.90
10692;DHT22;5396;50.950;6.988;2023-05-10T04:26:05;12.90;99.90
10692;DHT22;5396;50.950;6.988;2023-05-10T04:28:31;12.90;99.90
10692;DHT22;5396;50.950;6.988;2023-05-10T04:31:07;12.80;99.90
10692;DHT22;5396;50.950;6.988;2023-05-10T04:33:33;12.90;99.90
10692;DHT22;5396;50.950;6.988;2023-05-10T04:36:01;12.90;99.90
10692;DHT22;5396;50.950;6.988;2023-05-10T04:38:27;12.90;99.90
10692;DHT22;5396;50.950;6.988;2023-05-10T04:40:53;12.90;99.90
10692;DHT22;5396;50.950;6.988;2023-05-10T04:43:19;12.80;99.90
10692;DHT22;5396;50.950;6.988;2023-05-10T04:45:44;12.80;99.90
10692;DHT22;5396;50.950;6.988;2023-05-10T04:48:10;12.80;99.90
10692;DHT22;5396;50.950;6.988;2023-05-10T04:50:36;12.80;99.90
10692;DHT22;5396;50.950;6.988;2023-05-10T04:53:02;12.80;99.90
10692;DHT22;5396;50.950;6.988;2023-05-10T04:55:27;12.90;99.90
10692;DHT22;5396;50.950;6.988;2023-05-10T04:57:53;12.90;99.90
10692;DHT22;5396;50.950;6.988;2023-05-10T05:00:22;12.80;99.90
10692;DHT22;5396;50.950;6.988;2023-05-10T05:02:47;12.90;99.90
10692;DHT22;5396;50.950;6.988;2023-05-10T05:05:13;12.90;99.90
10692;DHT22;5396;50.950;6.988;2023-05-10T05:07:39;12.90;99.90
10692;DHT22;5396;50.950;6.988;2023-05-10T05:10:08;12.90;99.90
10692;DHT22;5396;50.950;6.988;2023-05-10T05:12:34;13.00;99.90
10692;DHT22;5396;50.950;6.988;2023-05-10T05:15:00;13.00;99.90
10692;DHT22;5396;50.950;6.988;2023-05-10T05:17:26;13.00;99.90
10692;DHT22;5396;50.950;6.988;2023-05-10T05:19:52;13.00;99.90
10692;DHT22;5396;50.950;6.988;2023-05-10T05:22:18;13.00;99.90
10692;DHT22;5396;50.950;6.988;2023-05-10T05:24:44;13.10;99.90
10692;DHT22;5396;50.950;6.988;2023-05-10T05:27:11;13.10;99.90
10692;DHT22;5396;50.950;6.988;2023-05-10T05:29:36;13.10;99.90
10692;DHT22;5396;50.950;6.988;2023-05-10T05:32:02;13.10;99.90
10692;DHT22;5396;50.950;6.988;2023-05-10T05:34:28;13.10;99.90
10692;DHT22;5396;50.950;6.988;2023-05-10T05:36:54;13.20;99.90
10692;DHT22;5396;50.950;6.988;2023-05-10T05:39:19;13.20;99.90
10692;DHT22;5396;50.950;6.988;2023-05-10T05:41:45;13.20;99.90
10692;DHT22;5396;50.950;6.988;2023-05-10T05:44:11;13.20;99.90
10692;DHT22;5396;50.950;6.988;2023-05-10T05:46:37;13.20;99.90
10692;DHT22;5396;50.950;6.988;2023-05-10T05:49:03;13.20;99.90
10692;DHT22;5396;50.950;6.988;2023-05-10T05:51:28;13.20;99.90
10692;DHT22;5396;50.950;6.988;2023-05-10T05:53:54;13.20;99.90
10692;DHT22;5396;50.950;6.988;2023-05-10T05:56:20;13.30;99.90
10692;DHT22;5396;50.950;6.988;2023-05-10T05:58:50;13.30;99.90
10692;DHT22;5396;50.950;6.988;2023-05-10T06:01:17;13.30;99.90
10692;DHT22;5396;50.950;6.988;2023-05-10T06:03:42;13.30;99.90
10692;DHT22;5396;50.950;6.988;2023-05-10T06:06:08;13.40;99.90
10692;DHT22;5396;50.950;6.988;2023-05-10T06:08:34;13.40;99.90
10692;DHT22;5396;50.950;6.988;2023-05-10T06:11:00;13.40;99.90
10692;DHT22;5396;50.950;6.988;2023-05-10T06:13:26;13.50;99.90
10692;DHT22;5396;50.950;6.988;2023-05-10T06:15:58;13.50;99.90
10692;DHT22;5396;50.950;6.988;2023-05-10T06:18:24;13.50;99.90
10692;DHT22;5396;50.950;6.988;2023-05-10T06:20:51;13.50;99.90
10692;DHT22;5396;50.950;6.988;2023-05-10T06:23:18;13.50;99.90
10692;DHT22;5396;50.950;6.988;2023-05-10T06:25:45;13.40;99.90
10692;DHT22;5396;50.950;6.988;2023-05-10T06:28:10;13.40;99.90
10692;DHT22;5396;50.950;6.988;2023-05-10T06:30:36;13.40;99.90
10692;DHT22;5396;50.950;6.988;2023-05-10T06:33:02;13.40;99.90
10692;DHT22;5396;50.950;6.988;2023-05-10T06:35:28;13.40;99.90
10692;DHT22;5396;50.950;6.988;2023-05-10T06:37:54;13.40;99.90
10692;DHT22;5396;50.950;6.988;2023-05-10T06:40:20;13.40;99.90
10692;DHT22;5396;50.950;6.988;2023-05-10T06:42:49;13.50;99.90
10692;DHT22;5396;50.950;6.988;2023-05-10T06:45:15;13.50;99.90
10692;DHT22;5396;50.950;6.988;2023-05-10T06:47:42;13.40;99.90
10692;DHT22;5396;50.950;6.988;2023-05-10T06:50:09;13.40;99.90
10692;DHT22;5396;50.950;6.988;2023-05-10T06:52:35;13.40;99.90
10692;DHT22;5396;50.950;6.988;2023-05-10T06:55:01;13.40;99.90
10692;DHT22;5396;50.950;6.988;2023-05-10T06:57:26;13.50;99.90
10692;DHT22;5396;50.950;6.988;2023-05-10T06:59:52;13.50;99.90
10692;DHT22;5396;50.950;6.988;2023-05-10T07:02:18;13.40;99.90
10692;DHT22;5396;50.950;6.988;2023-05-10T07:04:44;13.30;99.90
10692;DHT22;5396;50.950;6.988;2023-05-10T07:07:10;13.30;99.90
10692;DHT22;5396;50.950;6.988;2023-05-10T07:09:35;13.30;99.90
10692;DHT22;5396;50.950;6.988;2023-05-10T07:12:01;13.20;99.90
10692;DHT22;5396;50.950;6.988;2023-05-10T07:14:28;13.20;99.90
10692;DHT22;5396;50.950;6.988;2023-05-10T07:16:54;13.20;99.90
10692;DHT22;5396;50.950;6.988;2023-05-10T07:19:20;13.10;99.90
10692;DHT22;5396;50.950;6.988;2023-05-10T07:21:46;13.10;99.90
10692;DHT22;5396;50.950;6.988;2023-05-10T07:24:12;13.10;99.90
10692;DHT22;5396;50.950;6.988;2023-05-10T07:26:39;13.10;99.90
10692;DHT22;5396;50.950;6.988;2023-05-10T07:29:05;13.10;99.90
10692;DHT22;5396;50.950;6.988;2023-05-10T07:31:30;13.20;99.90
10692;DHT22;5396;50.950;6.988;2023-05-10T07:33:56;13.20;99.90
10692;DHT22;5396;50.950;6.988;2023-05-10T07:36:22;13.30;99.90
10692;DHT22;5396;50.950;6.988;2023-05-10T07:38:47;13.40;99.90
10692;DHT22;5396;50.950;6.988;2023-05-10T07:41:14;13.50;99.90
10692;DHT22;5396;50.950;6.988;2023-05-10T07:43:40;13.60;99.90
10692;DHT22;5396;50.950;6.988;2023-05-10T07:46:05;13.60;99.90
10692;DHT22;5396;50.950;6.988;2023-05-10T07:48:31;13.60;99.90
10692;DHT22;5396;50.950;6.988;2023-05-10T07:50:57;13.70;99.90
10692;DHT22;5396;50.950;6.988;2023-05-10T07:53:25;13.60;99.90
10692;DHT22;5396;50.950;6.988;2023-05-10T07:55:58;13.60;99.90
10692;DHT22;5396;50.950;6.988;2023-05-10T07:58:25;13.50;99.90
10692;DHT22;5396;50.950;6.988;2023-05-10T08:00:54;13.50;99.90
10692;DHT22;5396;50.950;6.988;2023-05-10T08:03:22;13.30;99.90
10692;DHT22;5396;50.950;6.988;2023-05-10T08:05:48;13.30;99.90
10692;DHT22;5396;50.950;6.988;2023-05-10T08:08:13;13.30;99.90
10692;DHT22;5396;50.950;6.988;2023-05-10T08:10:39;13.30;99.90
10692;DHT22;5396;50.950;6.988;2023-05-10T08:13:07;13.20;99.90
10692;DHT22;5396;50.950;6.988;2023-05-10T08:15:32;13.20;99.90
10692;DHT22;5396;50.950;6.988;2023-05-10T08:17:58;13.30;99.90
10692;DHT22;5396;50.950;6.988;2023-05-10T08:20:25;13.20;99.90
10692;DHT22;5396;50.950;6.988;2023-05-10T08:22:51;13.20;99.90
10692;DHT22;5396;50.950;6.988;2023-05-10T08:25:16;13.30;99.90
10692;DHT22;5396;50.950;6.988;2023-05-10T08:27:43;13.30;99.90
10692;DHT22;5396;50.950;6.988;2023-05-10T08:30:09;13.40;99.90
10692;DHT22;5396;50.950;6.988;2023-05-10T08:32:35;13.50;99.90
10692;DHT22;5396;50.950;6.988;2023-05-10T08:35:02;13.60;99.90
10692;DHT22;5396;50.950;6.988;2023-05-10T08:37:30;13.60;99.90
10692;DHT22;5396;50.950;6.988;2023-05-10T08:39:57;13.60;99.90
10692;DHT22;5396;50.950;6.988;2023-05-10T08:42:26;13.60;99.90
10692;DHT22;5396;50.950;6.988;2023-05-10T08:44:54;13.60;99.90
10692;DHT22;5396;50.950;6.988;2023-05-10T08:47:21;13.60;99.90
10692;DHT22;5396;50.950;6.988;2023-05-10T08:49:48;13.40;99.90
10692;DHT22;5396;50.950;6.988;2023-05-10T08:52:17;13.40;99.90
10692;DHT22;5396;50.950;6.988;2023-05-10T08:54:43;13.40;99.90
10692;DHT22;5396;50.950;6.988;2023-05-10T08:57:10;13.40;99.90
10692;DHT22;5396;50.950;6.988;2023-05-10T08:59:36;13.30;99.90
10692;DHT22;5396;50.950;6.988;2023-05-10T09:02:05;13.30;99.90
10692;DHT22;5396;50.950;6.988;2023-05-10T09:04:31;13.30;99.90
10692;DHT22;5396;50.950;6.988;2023-05-10T09:06:57;13.30;99.90
10692;DHT22;5396;50.950;6.988;2023-05-10T09:09:24;13.30;99.90
10692;DHT22;5396;50.950;6.988;2023-05-10T09:11:51;13.30;99.90
10692;DHT22;5396;50.950;6.988;2023-05-10T09:14:17;13.40;99.90
10692;DHT22;5396;50.950;6.988;2023-05-10T09:16:44;13.40;99.90
10692;DHT22;5396;50.950;6.988;2023-05-10T09:19:11;13.40;99.90
10692;DHT22;5396;50.950;6.988;2023-05-10T09:21:37;13.50;99.90
10692;DHT22;5396;50.950;6.988;2023-05-10T09:24:07;13.50;99.90
10692;DHT22;5396;50.950;6.988;2023-05-10T09:26:33;13.50;99.90
10692;DHT22;5396;50.950;6.988;2023-05-10T09:29:00;13.50;99.90
10692;DHT22;5396;50.950;6.988;2023-05-10T09:31:54;13.50;99.90
10692;DHT22;5396;50.950;6.988;2023-05-10T09:34:29;13.60;99.90
10692;DHT22;5396;50.950;6.988;2023-05-10T09:36:57;13.60;99.90
10692;DHT22;5396;50.950;6.988;2023-05-10T09:39:38;13.70;99.90
10692;DHT22;5396;50.950;6.988;2023-05-10T09:42:06;13.70;99.90
10692;DHT22;5396;50.950;6.988;2023-05-10T09:44:35;13.70;99.90
10692;DHT22;5396;50.950;6.988;2023-05-10T09:47:03;13.50;99.90
10692;DHT22;5396;50.950;6.988;2023-05-10T09:49:30;13.50;99.90
10692;DHT22;5396;50.950;6.988;2023-05-10T09:52:07;13.50;99.90
10692;DHT22;5396;50.950;6.988;2023-05-10T09:54:33;13.50;99.90
10692;DHT22;5396;50.950;6.988;2023-05-10T09:57:00;13.60;99.90
10692;DHT22;5396;50.950;6.988;2023-05-10T09:59:26;13.60;99.90
10692;DHT22;5396;50.950;6.988;2023-05-10T10:01:56;13.70;99.90
10692;DHT22;5396;50.950;6.988;2023-05-10T10:04:22;13.60;99.90
10692;DHT22;5396;50.950;6.988;2023-05-10T10:06:59;13.70;99.90
10692;DHT22;5396;50.950;6.988;2023-05-10T10:09:26;13.70;99.90
10692;DHT22;5396;50.950;6.988;2023-05-10T10:11:54;13.80;99.90
10692;DHT22;5396;50.950;6.988;2023-05-10T10:14:20;13.90;99.90
10692;DHT22;5396;50.950;6.988;2023-05-10T10:16:47;14.10;99.90
10692;DHT22;5396;50.950;6.988;2023-05-10T10:19:13;14.20;99.90
10692;DHT22;5396;50.950;6.988;2023-05-10T10:21:39;14.40;99.90
10692;DHT22;5396;50.950;6.988;2023-05-10T10:24:05;14.50;99.90
10692;DHT22;5396;50.950;6.988;2023-05-10T10:26:33;14.60;99.90
10692;DHT22;5396;50.950;6.988;2023-05-10T10:31:51;14.90;99.90
10692;DHT22;5396;50.950;6.988;2023-05-10T10:34:26;15.20;99.90
10692;DHT22;5396;50.950;6.988;2023-05-10T10:36:54;15.40;99.90
10692;DHT22;5396;50.950;6.988;2023-05-10T10:39:20;15.70;99.90
10692;DHT22;5396;50.950;6.988;2023-05-10T10:41:56;15.70;99.90
10692;DHT22;5396;50.950;6.988;2023-05-10T10:52:53;16.60;99.90
10692;DHT22;5396;50.950;6.988;2023-05-10T10:55:21;16.30;99.90
10692;DHT22;5396;50.950;6.988;2023-05-10T11:05:40;16.20;99.90
10692;DHT22;5396;50.950;6.988;2023-05-10T11:08:15;16.50;99.90
10692;DHT22;5396;50.950;6.988;2023-05-10T11:10:53;16.70;99.90
10692;DHT22;5396;50.950;6.988;2023-05-10T11:13:30;16.80;99.90
10692;DHT22;5396;50.950;6.988;2023-05-10T11:15:57;16.60;99.90
10692;DHT22;5396;50.950;6.988;2023-05-10T11:18:28;16.60;99.90
10692;DHT22;5396;50.950;6.988;2023-05-10T11:20:58;16.70;99.90
10692;DHT22;5396;50.950;6.988;2023-05-10T11:23:30;16.80;99.90
10692;DHT22;5396;50.950;6.988;2023-05-10T11:25:56;16.50;99.90
10692;DHT22;5396;50.950;6.988;2023-05-10T11:28:22;16.40;99.90
10692;DHT22;5396;50.950;6.988;2023-05-10T11:30:48;16.30;99.90
10692;DHT22;5396;50.950;6.988;2023-05-10T11:33:17;16.30;99.90
10692;DHT22;5396;50.950;6.988;2023-05-10T11:35:43;16.20;99.90
10692;DHT22;5396;50.950;6.988;2023-05-10T11:38:11;16.10;99.90
10692;DHT22;5396;50.950;6.988;2023-05-10T11:40:37;16.10;99.90
10692;DHT22;5396;50.950;6.988;2023-05-10T11:43:04;15.90;99.90
10692;DHT22;5396;50.950;6.988;2023-05-10T11:45:34;15.80;99.90
10692;DHT22;5396;50.950;6.988;2023-05-10T11:48:00;15.90;99.90
10692;DHT22;5396;50.950;6.988;2023-05-10T11:50:26;15.80;99.90
10692;DHT22;5396;50.950;6.988;2023-05-10T11:52:56;15.80;99.90
10692;DHT22;5396;50.950;6.988;2023-05-10T11:55:22;15.80;99.90
10692;DHT22;5396;50.950;6.988;2023-05-10T11:57:53;15.80;99.90
10692;DHT22;5396;50.950;6.988;2023-05-10T12:00:19;15.70;99.90
10692;DHT22;5396;50.950;6.988;2023-05-10T12:02:45;15.80;99.90
10692;DHT22;5396;50.950;6.988;2023-05-10T12:05:13;15.90;99.90
10692;DHT22;5396;50.950;6.988;2023-05-10T12:07:38;16.00;99.90
10692;DHT22;5396;50.950;6.988;2023-05-10T12:10:12;16.10;99.90
10692;DHT22;5396;50.950;6.988;2023-05-10T12:12:45;16.10;99.90
10692;DHT22;5396;50.950;6.988;2023-05-10T12:15:16;16.30;99.90
10692;DHT22;5396;50.950;6.988;2023-05-10T12:17:44;16.40;99.90
10692;DHT22;5396;50.950;6.988;2023-05-10T12:20:18;16.40;99.90
10692;DHT22;5396;50.950;6.988;2023-05-10T12:22:50;16.30;99.90
10692;DHT22;5396;50.950;6.988;2023-05-10T12:25:20;16.30;99.90
10692;DHT22;5396;50.950;6.988;2023-05-10T12:27:57;16.30;99.90
10692;DHT22;5396;50.950;6.988;2023-05-10T12:30:24;16.50;99.90
10692;DHT22;5396;50.950;6.988;2023-05-10T12:32:50;16.80;99.90
10692;DHT22;5396;50.950;6.988;2023-05-10T12:35:17;17.00;99.90
10692;DHT22;5396;50.950;6.988;2023-05-10T12:37:44;16.90;99.90
10692;DHT22;5396;50.950;6.988;2023-05-10T12:40:10;16.90;99.90
10692;DHT22;5396;50.950;6.988;2023-05-10T12:42:38;16.90;99.90
10692;DHT22;5396;50.950;6.988;2023-05-10T12:45:06;17.10;99.90
10692;DHT22;5396;50.950;6.988;2023-05-10T12:47:32;17.10;99.90
10692;DHT22;5396;50.950;6.988;2023-05-10T12:50:01;17.10;99.90
10692;DHT22;5396;50.950;6.988;2023-05-10T12:52:27;17.20;99.90
10692;DHT22;5396;50.950;6.988;2023-05-10T12:54:53;17.50;99.90
10692;DHT22;5396;50.950;6.988;2023-05-10T12:57:20;17.60;99.90
10692;DHT22;5396;50.950;6.988;2023-05-10T12:59:46;17.60;99.90
10692;DHT22;5396;50.950;6.988;2023-05-10T13:02:12;17.40;99.90
10692;DHT22;5396;50.950;6.988;2023-05-10T13:04:38;17.20;99.90
10692;DHT22;5396;50.950;6.988;2023-05-10T13:07:06;17.30;99.90
10692;DHT22;5396;50.950;6.988;2023-05-10T13:09:32;17.60;99.90
10692;DHT22;5396;50.950;6.988;2023-05-10T13:11:57;17.90;99.90
10692;DHT22;5396;50.950;6.988;2023-05-10T13:14:25;18.10;99.90
10692;DHT22;5396;50.950;6.988;2023-05-10T13:16:50;18.30;99.90
10692;DHT22;5396;50.950;6.988;2023-05-10T13:19:16;18.40;99.90
10692;DHT22;5396;50.950;6.988;2023-05-10T13:21:42;18.50;99.90
10692;DHT22;5396;50.950;6.988;2023-05-10T13:24:10;18.80;99.90
10692;DHT22;5396;50.950;6.988;2023-05-10T13:26:36;19.20;99.90
10692;DHT22;5396;50.950;6.988;2023-05-10T13:29:03;20.20;99.90
10692;DHT22;5396;50.950;6.988;2023-05-10T13:31:29;21.20;99.90
10692;DHT22;5396;50.950;6.988;2023-05-10T13:33:55;20.30;99.90
10692;DHT22;5396;50.950;6.988;2023-05-10T13:36:20;20.20;99.90
10692;DHT22;5396;50.950;6.988;2023-05-10T13:38:47;21.10;99.90
10692;DHT22;5396;50.950;6.988;2023-05-10T13:41:13;21.70;99.90
10692;DHT22;5396;50.950;6.988;2023-05-10T13:43:38;22.60;99.90
10692;DHT22;5396;50.950;6.988;2023-05-10T13:46:04;22.90;99.90
10692;DHT22;5396;50.950;6.988;2023-05-10T13:48:29;21.90;99.90
10692;DHT22;5396;50.950;6.988;2023-05-10T13:50:55;20.90;99.90
10692;DHT22;5396;50.950;6.988;2023-05-10T13:53:21;20.10;99.90
10692;DHT22;5396;50.950;6.988;2023-05-10T13:55:47;19.60;99.90
10692;DHT22;5396;50.950;6.988;2023-05-10T13:58:12;19.60;99.90
10692;DHT22;5396;50.950;6.988;2023-05-10T14:00:38;19.40;99.90
10692;DHT22;5396;50.950;6.988;2023-05-10T14:03:03;18.90;99.90
10692;DHT22;5396;50.950;6.988;2023-05-10T14:05:30;18.50;99.90
10692;DHT22;5396;50.950;6.988;2023-05-10T14:07:56;18.50;99.90
10692;DHT22;5396;50.950;6.988;2023-05-10T14:10:22;18.70;99.90
10692;DHT22;5396;50.950;6.988;2023-05-10T14:12:48;19.10;99.90
10692;DHT22;5396;50.950;6.988;2023-05-10T14:15:13;19.90;99.90
10692;DHT22;5396;50.950;6.988;2023-05-10T14:17:39;20.80;99.90
10692;DHT22;5396;50.950;6.988;2023-05-10T14:20:05;21.40;99.90
10692;DHT22;5396;50.950;6.988;2023-05-10T14:22:31;21.60;99.90
10692;DHT22;5396;50.950;6.988;2023-05-10T14:24:56;21.70;99.90
10692;DHT22;5396;50.950;6.988;2023-05-10T14:27:22;21.40;99.90
10692;DHT22;5396;50.950;6.988;2023-05-10T14:29:48;20.60;99.90
10692;DHT22;5396;50.950;6.988;2023-05-10T14:32:13;20.80;99.90
10692;DHT22;5396;50.950;6.988;2023-05-10T14:34:39;21.70;99.90
10692;DHT22;5396;50.950;6.988;2023-05-10T14:37:05;22.30;99.90
10692;DHT22;5396;50.950;6.988;2023-05-10T14:39:30;21.90;99.90
10692;DHT22;5396;50.950;6.988;2023-05-10T14:41:56;21.00;99.90
10692;DHT22;5396;50.950;6.988;2023-05-10T14:44:22;20.30;99.90
10692;DHT22;5396;50.950;6.988;2023-05-10T14:46:47;19.60;99.90
10692;DHT22;5396;50.950;6.988;2023-05-10T14:49:14;19.00;99.90
10692;DHT22;5396;50.950;6.988;2023-05-10T14:51:40;18.50;99.90
10692;DHT22;5396;50.950;6.988;2023-05-10T14:54:06;18.10;99.90
10692;DHT22;5396;50.950;6.988;2023-05-10T14:56:31;17.90;99.90
10692;DHT22;5396;50.950;6.988;2023-05-10T14:58:57;17.80;99.90
10692;DHT22;5396;50.950;6.988;2023-05-10T15:01:23;17.70;99.90
10692;DHT22;5396;50.950;6.988;2023-05-10T15:03:48;17.60;99.90
10692;DHT22;5396;50.950;6.988;2023-05-10T15:06:14;17.60;99.90
10692;DHT22;5396;50.950;6.988;2023-05-10T15:08:41;17.60;99.90
10692;DHT22;5396;50.950;6.988;2023-05-10T15:11:06;17.70;99.90
10692;DHT22;5396;50.950;6.988;2023-05-10T15:13:32;17.70;99.90
10692;DHT22;5396;50.950;6.988;2023-05-10T15:15:58;17.70;99.90
10692;DHT22;5396;50.950;6.988;2023-05-10T15:18:23;17.70;99.90
10692;DHT22;5396;50.950;6.988;2023-05-10T15:20:49;17.70;99.90
10692;DHT22;5396;50.950;6.988;2023-05-10T15:23:14;17.60;99.90
10692;DHT22;5396;50.950;6.988;2023-05-10T15:25:40;17.50;99.90
10692;DHT22;5396;50.950;6.988;2023-05-10T15:28:06;17.40;99.90
10692;DHT22;5396;50.950;6.988;2023-05-10T15:30:32;17.30;99.90
10692;DHT22;5396;50.950;6.988;2023-05-10T15:32:57;17.20;99.90
10692;DHT22;5396;50.950;6.988;2023-05-10T15:35:23;17.00;99.90
10692;DHT22;5396;50.950;6.988;2023-05-10T15:37:49;17.00;99.90
10692;DHT22;5396;50.950;6.988;2023-05-10T15:40:15;17.00;99.90
10692;DHT22;5396;50.950;6.988;2023-05-10T15:42:40;17.00;99.90
10692;DHT22;5396;50.950;6.988;2023-05-10T15:45:06;17.00;99.90
10692;DHT22;5396;50.950;6.988;2023-05-10T15:47:32;17.00;99.90
10692;DHT22;5396;50.950;6.988;2023-05-10T15:49:58;17.10;99.90
10692;DHT22;5396;50.950;6.988;2023-05-10T15:52:24;17.10;99.90
10692;DHT22;5396;50.950;6.988;2023-05-10T15:54:50;17.10;99.90
10692;DHT22;5396;50.950;6.988;2023-05-10T15:57:15;17.10;99.90
10692;DHT22;5396;50.950;6.988;2023-05-10T15:59:41;17.20;99.90
10692;DHT22;5396;50.950;6.988;2023-05-10T16:02:08;17.20;99.90
10692;DHT22;5396;50.950;6.988;2023-05-10T16:04:36;17.20;99.90
10692;DHT22;5396;50.950;6.988;2023-05-10T16:07:04;17.00;99.90
10692;DHT22;5396;50.950;6.988;2023-05-10T16:09:29;16.90;99.90
10692;DHT22;5396;50.950;6.988;2023-05-10T16:11:55;16.90;99.90
10692;DHT22;5396;50.950;6.988;2023-05-10T16:14:21;17.00;99.90
10692;DHT22;5396;50.950;6.988;2023-05-10T16:16:48;17.00;99.90
10692;DHT22;5396;50.950;6.988;2023-05-10T16:19:14;17.10;99.90
10692;DHT22;5396;50.950;6.988;2023-05-10T16:21:40;17.00;99.90
10692;DHT22;5396;50.950;6.988;2023-05-10T16:24:06;16.90;99.90